SKSM Airport Information

Runway Information
Runway 01 Length 5577 ft width 98 ft
Elevation 8 ft Threshold 0 ft Heading 359
Runway 19 Length 5577 ft Width 98 ft
Elevation 22 ft Threshold 0 ft Heading 179
Airport Frequencies
Type APP Name BARRANQUIL Frequency 119.1 MHZ
Type TWR Name TWR Frequency 118.7 MHZ
Airport Navaids
Type NDB Name Santa Marta Frequency 287 KHZ
Type VOR-DME Name Santa Marta Frequency 116600 KHZ
Airport Weather Information & NOTAM
ADDS - METARS form results

(1414 UTC 27 February 2020)
Data provider http://aviationweather.gov/metar/data/
 
METAR text: SKSM 271400Z 23006KT 9999 FEW025 29/25 A2998
Conditions at: SKSM (SANTA MARTA/SIMO, CO) observed 1400 UTC 27 February 2020
Temperature: 29.0°C (84°F)
Dewpoint: 25.0°C (77°F) [RH = 79%]
Pressure (altimeter): 29.98 inches Hg (1015.3 mb)
Winds: from the SW (230 degrees) at 7 MPH (6 knots; 3.1 m/s)
Visibility: 6 or more miles (10+ km)
Ceiling: at least 12,000 feet AGL
Clouds: few clouds at 2500 feet AGL
Weather: no significant weather observed at this time